Time;durP1;ratioP1;P1;durP2;ratioP2;P2;SDS_P1;SDS_P2;PMS_P1;PMS_P2;Temp;Humidity;BMP_temperature;BMP_pressure;BME280_temperature;BME280_humidity;BME280_pressure;Samples;Min_cycle;Max_cycle;Signal;HPM_P1;HPM_P2
2023/05/14 00:00:21;;;;;;;18.42;16.75;;;;;;;;;;4942897;28;20030;-77
2023/05/14 00:02:46;;;;;;;17.33;15.55;;;;;;;;;;4937746;28;20023;-76
2023/05/14 00:05:12;;;;;;;18.38;14.80;;;;;;;;;;4942150;28;20027;-76
2023/05/14 00:07:37;;;;;;;18.25;16.10;;;;;;;;;;4942341;28;20553;-73
2023/05/14 00:10:03;;;;;;;19.13;17.35;;;;;;;;;;4942353;28;20366;-77
2023/05/14 00:12:29;;;;;;;19.30;17.35;;;;;;;;;;4940596;28;20039;-76
2023/05/14 00:14:54;;;;;;;16.95;15.25;;;;;;;;;;4953414;28;20056;-74
2023/05/14 00:17:19;;;;;;;14.70;13.23;;;;;;;;;;4946897;28;20042;-75
2023/05/14 00:19:45;;;;;;;15.65;14.18;;;;;;;;;;4951827;28;20061;-76
2023/05/14 00:22:10;;;;;;;16.33;14.68;;;;;;;;;;4948571;28;20038;-79
2023/05/14 00:24:36;;;;;;;20.13;18.27;;;;;;;;;;4953157;28;20030;-76
2023/05/14 00:27:01;;;;;;;21.02;19.00;;;;;;;;;;4949915;28;20035;-76
2023/05/14 00:29:27;;;;;;;21.80;19.48;;;;;;;;;;4947449;28;20041;-78
2023/05/14 00:31:52;;;;;;;22.83;20.63;;;;;;;;;;4946259;28;20067;-76
2023/05/14 00:34:17;;;;;;;23.08;20.88;;;;;;;;;;4952495;28;20019;-75
2023/05/14 00:36:43;;;;;;;25.83;23.20;;;;;;;;;;4949651;28;20026;-76
2023/05/14 00:39:08;;;;;;;27.63;24.70;;;;;;;;;;4948185;28;20053;-75
2023/05/14 00:41:33;;;;;;;25.52;22.85;;;;;;;;;;4953567;28;20118;-76
2023/05/14 00:43:59;;;;;;;27.40;24.70;;;;;;;;;;4952099;28;20114;-76
2023/05/14 00:46:25;;;;;;;23.25;20.92;;;;;;;;;;4944071;28;20357;-77
2023/05/14 00:48:50;;;;;;;21.45;18.92;;;;;;;;;;4945904;28;20019;-77
2023/05/14 00:51:16;;;;;;;18.75;16.85;;;;;;;;;;4959826;28;20027;-76
2023/05/14 00:53:42;;;;;;;19.58;17.58;;;;;;;;;;4956068;28;20438;-77
2023/05/14 00:56:07;;;;;;;21.50;18.77;;;;;;;;;;4943173;28;20082;-75
2023/05/14 00:58:33;;;;;;;17.77;15.98;;;;;;;;;;4954350;28;20038;-75
2023/05/14 01:00:58;;;;;;;18.23;16.42;;;;;;;;;;4946088;28;20390;-76
2023/05/14 01:03:24;;;;;;;15.98;14.40;;;;;;;;;;4959589;28;20024;-76
2023/05/14 01:06:01;;;;;;;14.95;13.35;;;;;;;;;;4956973;28;20035;-76
2023/05/14 01:08:31;;;;;;;14.73;13.27;;;;;;;;;;4949030;28;20106;-76
2023/05/14 01:11:20;;;;;;;17.13;14.93;;;;;;;;;;4954629;28;20027;-78
2023/05/14 01:13:52;;;;;;;18.73;15.57;;;;;;;;;;4950329;28;20035;-76
2023/05/14 01:16:17;;;;;;;18.45;16.40;;;;;;;;;;4954476;28;20023;-76
2023/05/14 01:18:45;;;;;;;16.52;14.82;;;;;;;;;;4946857;28;20033;-76
2023/05/14 01:21:42;;;;;;;16.38;14.75;;;;;;;;;;4955586;28;20038;-76
2023/05/14 01:24:08;;;;;;;16.50;14.25;;;;;;;;;;4937904;29;20050;-76
2023/05/14 01:26:34;;;;;;;19.98;14.48;;;;;;;;;;4938110;28;20032;-76
2023/05/14 01:29:25;;;;;;;16.15;14.35;;;;;;;;;;4937063;29;20449;-77
2023/05/14 01:31:53;;;;;;;18.77;16.88;;;;;;;;;;4931758;28;20444;-77
2023/05/14 01:34:22;;;;;;;21.80;19.75;;;;;;;;;;4937880;29;20043;-77
2023/05/14 01:36:47;;;;;;;;;;;;;;;;;;4928595;29;20027;-77
2023/05/14 01:39:14;;;;;;;24.23;21.93;;;;;;;;;;4929558;28;19915;-76
2023/05/14 01:41:40;;;;;;;27.13;24.20;;;;;;;;;;4936168;29;20430;-77
2023/05/14 01:44:05;;;;;;;26.23;23.70;;;;;;;;;;4926104;28;20050;-76
2023/05/14 01:46:32;;;;;;;25.15;22.73;;;;;;;;;;4932601;28;20035;-76
2023/05/14 01:48:57;;;;;;;17.90;16.30;;;;;;;;;;4938598;29;20031;-76
2023/05/14 01:51:22;;;;;;;13.35;12.00;;;;;;;;;;4936526;29;20042;-76
2023/05/14 01:53:48;;;;;;;13.25;10.75;;;;;;;;;;4928071;29;20439;-77
2023/05/14 01:56:13;;;;;;;11.73;10.38;;;;;;;;;;4922101;28;20049;-76
2023/05/14 01:58:38;;;;;;;15.18;10.20;;;;;;;;;;4922114;28;20035;-76
2023/05/14 02:01:04;;;;;;;12.38;9.35;;;;;;;;;;4954120;28;20031;-75
2023/05/14 02:03:30;;;;;;;9.43;8.52;;;;;;;;;;4954193;28;20034;-77
2023/05/14 02:05:55;;;;;;;9.90;8.90;;;;;;;;;;4947782;28;20114;-75
2023/05/14 02:08:20;;;;;;;9.48;8.20;;;;;;;;;;4955918;28;20102;-76
2023/05/14 02:10:46;;;;;;;8.70;7.90;;;;;;;;;;4959346;28;20038;-77
2023/05/14 02:13:11;;;;;;;9.43;8.52;;;;;;;;;;4953317;28;20681;-76
2023/05/14 02:15:37;;;;;;;10.77;9.57;;;;;;;;;;4938325;28;20110;-76
2023/05/14 02:18:02;;;;;;;11.27;8.88;;;;;;;;;;4941760;28;20058;-75
2023/05/14 02:20:27;;;;;;;9.98;8.90;;;;;;;;;;4945388;28;20038;-77
2023/05/14 02:22:53;;;;;;;9.52;8.57;;;;;;;;;;4951431;28;20106;-76
2023/05/14 02:25:18;;;;;;;12.15;9.18;;;;;;;;;;4953648;28;20031;-76
2023/05/14 02:27:43;;;;;;;11.70;9.68;;;;;;;;;;4970014;28;20026;-75
2023/05/14 02:30:09;;;;;;;11.65;10.45;;;;;;;;;;4952043;28;20093;-76
2023/05/14 02:32:34;;;;;;;11.13;10.02;;;;;;;;;;4949353;28;20473;-75
2023/05/14 02:35:00;;;;;;;10.18;9.30;;;;;;;;;;4952991;28;20039;-75
2023/05/14 02:37:25;;;;;;;9.68;8.80;;;;;;;;;;4955081;28;20038;-75
2023/05/14 02:39:51;;;;;;;9.40;8.50;;;;;;;;;;4947192;28;21110;-75
2023/05/14 02:42:16;;;;;;;9.50;7.20;;;;;;;;;;4954278;28;20093;-75
2023/05/14 02:44:41;;;;;;;11.48;7.78;;;;;;;;;;4954226;28;20031;-74
2023/05/14 02:47:07;;;;;;;10.68;8.10;;;;;;;;;;4949836;28;20382;-75
2023/05/14 02:49:32;;;;;;;8.60;7.80;;;;;;;;;;4954281;28;20085;-75
2023/05/14 02:51:59;;;;;;;8.32;7.47;;;;;;;;;;4957563;28;20031;-76
2023/05/14 02:54:25;;;;;;;7.88;6.93;;;;;;;;;;4955907;28;20114;-77
2023/05/14 02:56:50;;;;;;;10.38;7.50;;;;;;;;;;4955320;28;20114;-77
2023/05/14 02:59:15;;;;;;;7.80;6.90;;;;;;;;;;4950044;28;20367;-75
2023/05/14 03:01:41;;;;;;;9.13;7.13;;;;;;;;;;4954532;28;20163;-75
2023/05/14 03:04:06;;;;;;;9.60;8.10;;;;;;;;;;4942539;28;20035;-76
2023/05/14 03:06:32;;;;;;;11.82;9.05;;;;;;;;;;4950380;28;20022;-76
2023/05/14 03:08:57;;;;;;;10.55;9.27;;;;;;;;;;4951613;28;20061;-75
2023/05/14 03:11:22;;;;;;;9.82;8.82;;;;;;;;;;4954600;28;20050;-75
2023/05/14 03:13:48;;;;;;;9.75;8.80;;;;;;;;;;4954220;28;20443;-75
2023/05/14 03:16:13;;;;;;;11.18;9.75;;;;;;;;;;4956798;28;20023;-75
2023/05/14 03:18:38;;;;;;;10.73;9.60;;;;;;;;;;4955974;28;20090;-76
2023/05/14 03:21:04;;;;;;;11.25;9.90;;;;;;;;;;4949191;28;20026;-76
2023/05/14 03:23:30;;;;;;;11.15;10.02;;;;;;;;;;4945530;28;20035;-75
2023/05/14 03:25:56;;;;;;;13.52;10.57;;;;;;;;;;4955379;28;20027;-75
2023/05/14 03:28:21;;;;;;;11.63;10.43;;;;;;;;;;4955828;28;20034;-77
2023/05/14 03:30:47;;;;;;;10.40;9.40;;;;;;;;;;4953867;28;20082;-76
2023/05/14 03:33:12;;;;;;;10.98;9.60;;;;;;;;;;4953934;28;20046;-76
2023/05/14 03:35:38;;;;;;;10.25;9.15;;;;;;;;;;4952934;28;20031;-75
2023/05/14 03:38:03;;;;;;;11.57;9.35;;;;;;;;;;4955038;28;20098;-75
2023/05/14 03:40:28;;;;;;;10.20;9.20;;;;;;;;;;4952356;28;20039;-76
2023/05/14 03:42:54;;;;;;;12.02;10.02;;;;;;;;;;4942236;28;20090;-75
2023/05/14 03:45:20;;;;;;;13.55;10.75;;;;;;;;;;4953946;28;20645;-76
2023/05/14 03:47:45;;;;;;;10.98;9.88;;;;;;;;;;4957768;28;20066;-76
2023/05/14 03:50:11;;;;;;;12.35;10.95;;;;;;;;;;4955027;28;20164;-75
2023/05/14 03:52:36;;;;;;;12.48;11.18;;;;;;;;;;4952900;28;20328;-76
2023/05/14 03:55:01;;;;;;;11.40;9.85;;;;;;;;;;4954666;28;20029;-74
2023/05/14 03:57:27;;;;;;;11.55;9.80;;;;;;;;;;4953028;28;20095;-74
2023/05/14 03:59:53;;;;;;;10.07;9.07;;;;;;;;;;4953106;28;20041;-74
2023/05/14 04:02:18;;;;;;;10.40;9.27;;;;;;;;;;4955054;28;20047;-75
2023/05/14 04:04:43;;;;;;;10.98;9.98;;;;;;;;;;4954968;28;20035;-77
2023/05/14 04:07:09;;;;;;;11.30;9.93;;;;;;;;;;4944226;28;20031;-77
2023/05/14 04:09:34;;;;;;;10.95;9.68;;;;;;;;;;4954901;28;20031;-77
2023/05/14 04:12:00;;;;;;;13.07;10.13;;;;;;;;;;4953709;28;20122;-76
2023/05/14 04:14:25;;;;;;;11.32;10.20;;;;;;;;;;4954758;28;20041;-76
2023/05/14 04:16:50;;;;;;;12.13;9.93;;;;;;;;;;4951141;28;20039;-75
2023/05/14 04:19:16;;;;;;;12.43;9.60;;;;;;;;;;4959548;28;20046;-76
2023/05/14 04:21:41;;;;;;;11.95;9.48;;;;;;;;;;4952099;28;20038;-76
2023/05/14 04:24:07;;;;;;;12.57;11.35;;;;;;;;;;4949282;28;20030;-77
2023/05/14 04:26:32;;;;;;;11.63;9.98;;;;;;;;;;4959136;28;20098;-74
2023/05/14 04:29:01;;;;;;;12.18;10.57;;;;;;;;;;4956960;28;20043;-76
2023/05/14 04:31:27;;;;;;;12.27;11.13;;;;;;;;;;4958389;28;20031;-76
2023/05/14 04:33:52;;;;;;;13.25;11.07;;;;;;;;;;4959744;28;20031;-76
2023/05/14 04:36:17;;;;;;;11.02;9.93;;;;;;;;;;4959135;28;20030;-77
2023/05/14 04:38:43;;;;;;;10.25;9.35;;;;;;;;;;4958257;28;20073;-75
2023/05/14 04:41:08;;;;;;;10.38;9.20;;;;;;;;;;4957082;28;20047;-75
2023/05/14 04:43:33;;;;;;;12.05;10.00;;;;;;;;;;4958587;28;20022;-74
2023/05/14 04:45:59;;;;;;;13.48;10.35;;;;;;;;;;4958766;28;20451;-75
2023/05/14 04:48:24;;;;;;;13.05;10.77;;;;;;;;;;4963296;28;20035;-75
2023/05/14 04:50:50;;;;;;;11.82;10.63;;;;;;;;;;4955657;28;20073;-75
2023/05/14 04:53:16;;;;;;;11.38;10.27;;;;;;;;;;4955703;28;20031;-75
2023/05/14 04:55:41;;;;;;;10.55;9.55;;;;;;;;;;4953791;28;20054;-76
2023/05/14 04:58:07;;;;;;;12.45;11.35;;;;;;;;;;4945941;28;20065;-74
2023/05/14 05:00:33;;;;;;;12.82;11.52;;;;;;;;;;4956777;28;20070;-75
2023/05/14 05:02:58;;;;;;;12.35;11.05;;;;;;;;;;4958477;28;20036;-74
2023/05/14 05:05:24;;;;;;;12.68;11.45;;;;;;;;;;4951779;28;20027;-74
2023/05/14 05:07:49;;;;;;;14.10;10.95;;;;;;;;;;4952486;28;20042;-73
2023/05/14 05:10:15;;;;;;;13.18;11.98;;;;;;;;;;4956854;28;20403;-75
2023/05/14 05:12:40;;;;;;;12.20;11.00;;;;;;;;;;4954600;28;20292;-75
2023/05/14 05:15:06;;;;;;;13.65;11.88;;;;;;;;;;4952902;28;21315;-75
2023/05/14 05:17:31;;;;;;;18.50;15.13;;;;;;;;;;4947507;28;20023;-75
2023/05/14 05:19:56;;;;;;;18.00;14.38;;;;;;;;;;4954171;28;20442;-76
2023/05/14 05:22:22;;;;;;;16.33;13.57;;;;;;;;;;4960069;28;20110;-76
2023/05/14 05:24:48;;;;;;;19.92;16.45;;;;;;;;;;4958468;28;20019;-75
2023/05/14 05:27:13;;;;;;;16.95;15.15;;;;;;;;;;4949416;28;20114;-76
2023/05/14 05:29:38;;;;;;;14.60;12.35;;;;;;;;;;4958499;28;20357;-78
2023/05/14 05:32:04;;;;;;;14.77;13.35;;;;;;;;;;4950404;28;20030;-76
2023/05/14 05:34:30;;;;;;;13.43;12.23;;;;;;;;;;4950287;28;20097;-77
2023/05/14 05:36:55;;;;;;;14.15;12.82;;;;;;;;;;4943375;28;20417;-77
2023/05/14 05:39:21;;;;;;;12.35;11.05;;;;;;;;;;4943770;28;21101;-78
2023/05/14 05:41:46;;;;;;;13.27;11.98;;;;;;;;;;4940265;28;20055;-76
2023/05/14 05:44:11;;;;;;;14.27;12.77;;;;;;;;;;4952873;28;20039;-75
2023/05/14 05:46:37;;;;;;;15.70;13.68;;;;;;;;;;4950558;28;20110;-75
2023/05/14 05:49:02;;;;;;;16.63;12.77;;;;;;;;;;4947930;28;20442;-75
2023/05/14 05:51:27;;;;;;;14.45;12.95;;;;;;;;;;4958268;28;20057;-75
2023/05/14 05:53:53;;;;;;;17.00;14.43;;;;;;;;;;4948804;28;20065;-75
2023/05/14 05:56:18;;;;;;;51.92;42.30;;;;;;;;;;4945898;28;20054;-76
2023/05/14 05:58:43;;;;;;;50.20;44.70;;;;;;;;;;4942382;28;20099;-75
2023/05/14 06:01:09;;;;;;;28.50;25.40;;;;;;;;;;4958365;28;20054;-75
2023/05/14 06:03:34;;;;;;;40.60;34.05;;;;;;;;;;4958938;28;20035;-76
2023/05/14 06:06:00;;;;;;;56.97;51.17;;;;;;;;;;4957830;28;20031;-77
2023/05/14 06:08:25;;;;;;;24.70;22.27;;;;;;;;;;4970771;28;20481;-76
2023/05/14 06:10:51;;;;;;;27.52;25.05;;;;;;;;;;4949850;28;20129;-76
2023/05/14 06:13:16;;;;;;;21.77;19.63;;;;;;;;;;4954058;28;20034;-75
2023/05/14 06:15:41;;;;;;;23.60;21.20;;;;;;;;;;4971062;28;20366;-74
2023/05/14 06:18:07;;;;;;;17.52;15.80;;;;;;;;;;4955848;28;20078;-74
2023/05/14 06:20:32;;;;;;;25.20;22.17;;;;;;;;;;4953026;28;20062;-74
2023/05/14 06:22:58;;;;;;;27.48;24.50;;;;;;;;;;4955995;28;20039;-73
2023/05/14 06:25:23;;;;;;;29.00;26.02;;;;;;;;;;4955361;28;20030;-76
2023/05/14 06:27:48;;;;;;;78.82;56.92;;;;;;;;;;4957556;28;20055;-74
2023/05/14 06:30:14;;;;;;;114.25;86.80;;;;;;;;;;4953462;28;20031;-74
2023/05/14 06:32:39;;;;;;;131.43;104.72;;;;;;;;;;4953166;28;20027;-79
2023/05/14 06:35:05;;;;;;;37.65;33.60;;;;;;;;;;4957018;28;20518;-77
2023/05/14 06:37:30;;;;;;;88.50;66.15;;;;;;;;;;4948341;28;20023;-78
2023/05/14 06:39:56;;;;;;;199.45;148.75;;;;;;;;;;4955178;28;20019;-78
2023/05/14 06:42:21;;;;;;;44.13;37.10;;;;;;;;;;4943327;28;20043;-76
2023/05/14 06:44:46;;;;;;;39.67;35.20;;;;;;;;;;4940280;28;20074;-81
2023/05/14 06:47:12;;;;;;;31.05;26.98;;;;;;;;;;4945465;28;20038;-77
2023/05/14 06:49:38;;;;;;;32.50;28.77;;;;;;;;;;4938521;28;20165;-75
2023/05/14 06:52:03;;;;;;;41.47;37.08;;;;;;;;;;4939521;28;20031;-76
2023/05/14 06:54:29;;;;;;;36.70;32.67;;;;;;;;;;4943076;28;20338;-77
2023/05/14 06:56:55;;;;;;;31.92;28.73;;;;;;;;;;4940970;28;20027;-78
2023/05/14 06:59:20;;;;;;;31.23;28.10;;;;;;;;;;4951308;28;20042;-77
2023/05/14 07:01:46;;;;;;;29.70;26.70;;;;;;;;;;4939046;28;20042;-76
2023/05/14 07:04:11;;;;;;;48.65;43.63;;;;;;;;;;4941369;28;20886;-77
2023/05/14 07:06:37;;;;;;;28.85;25.90;;;;;;;;;;4944183;28;20334;-78
2023/05/14 07:09:02;;;;;;;25.48;22.88;;;;;;;;;;4939240;28;20053;-77
2023/05/14 07:11:28;;;;;;;20.70;18.52;;;;;;;;;;4941088;28;20030;-76
2023/05/14 07:13:53;;;;;;;19.58;17.77;;;;;;;;;;4943167;28;20081;-77
2023/05/14 07:16:18;;;;;;;27.42;24.63;;;;;;;;;;4957957;28;20150;-76
2023/05/14 07:18:44;;;;;;;28.85;25.23;;;;;;;;;;4956011;28;20441;-76
2023/05/14 07:21:09;;;;;;;55.25;48.08;;;;;;;;;;4953790;28;20117;-76
2023/05/14 07:23:36;;;;;;;22.88;20.58;;;;;;;;;;4955032;28;20501;-76
2023/05/14 07:26:02;;;;;;;18.70;16.85;;;;;;;;;;4953810;28;20037;-75
2023/05/14 07:28:27;;;;;;;37.80;33.78;;;;;;;;;;4944577;28;20027;-76
2023/05/14 07:30:52;;;;;;;33.88;28.77;;;;;;;;;;4941557;28;20046;-75
2023/05/14 07:33:18;;;;;;;30.75;26.55;;;;;;;;;;4945828;28;20034;-75
2023/05/14 07:35:43;;;;;;;52.22;40.83;;;;;;;;;;4945876;28;20046;-75
2023/05/14 07:38:09;;;;;;;29.48;26.30;;;;;;;;;;4940344;28;20640;-75
2023/05/14 07:40:34;;;;;;;105.80;78.40;;;;;;;;;;4940145;28;20065;-75
2023/05/14 07:42:59;;;;;;;42.83;37.10;;;;;;;;;;4943104;28;20031;-75
2023/05/14 07:45:25;;;;;;;24.23;21.73;;;;;;;;;;4946323;28;20043;-75
2023/05/14 07:47:50;;;;;;;25.35;22.70;;;;;;;;;;4953608;28;20019;-75
2023/05/14 07:50:17;;;;;;;28.67;25.48;;;;;;;;;;4944433;28;20033;-74
2023/05/14 07:52:42;;;;;;;23.70;21.45;;;;;;;;;;4952832;28;20139;-76
2023/05/14 07:55:08;;;;;;;26.23;23.55;;;;;;;;;;4967691;28;20122;-76
2023/05/14 07:57:33;;;;;;;43.33;36.33;;;;;;;;;;4957675;28;20027;-76
2023/05/14 07:59:58;;;;;;;20.20;18.10;;;;;;;;;;4954450;28;20461;-76
2023/05/14 08:02:24;;;;;;;52.80;42.35;;;;;;;;;;4958794;28;20018;-75
2023/05/14 08:04:49;;;;;;;60.88;54.08;;;;;;;;;;4953055;28;20047;-75
2023/05/14 08:07:14;;;;;;;59.83;53.22;;;;;;;;;;4947208;28;20190;-75
2023/05/14 08:09:40;;;;;;;30.25;27.13;;;;;;;;;;4940163;28;20145;-77
2023/05/14 08:12:06;;;;;;;29.63;26.73;;;;;;;;;;4937143;28;20127;-77
2023/05/14 08:14:31;;;;;;;50.20;41.97;;;;;;;;;;4947267;28;20023;-74
2023/05/14 08:16:57;;;;;;;71.80;52.92;;;;;;;;;;4942542;28;20042;-73
2023/05/14 08:19:23;;;;;;;39.13;31.27;;;;;;;;;;4943264;28;20105;-75
2023/05/14 08:21:48;;;;;;;27.70;24.58;;;;;;;;;;4937555;28;20027;-77
2023/05/14 08:24:14;;;;;;;22.42;20.10;;;;;;;;;;4939601;28;20114;-74
2023/05/14 08:26:39;;;;;;;21.33;19.25;;;;;;;;;;4937167;28;20093;-76
2023/05/14 08:29:04;;;;;;;45.50;40.67;;;;;;;;;;4938857;28;20023;-77
2023/05/14 08:31:30;;;;;;;77.32;62.33;;;;;;;;;;4941767;28;20455;-75
2023/05/14 08:33:55;;;;;;;82.30;69.45;;;;;;;;;;4937665;28;20045;-75
2023/05/14 08:36:20;;;;;;;36.38;31.65;;;;;;;;;;4942012;28;20482;-76
2023/05/14 08:38:47;;;;;;;20.80;18.35;;;;;;;;;;4937703;28;20065;-77
2023/05/14 08:41:13;;;;;;;23.20;20.77;;;;;;;;;;4937825;28;20137;-76
2023/05/14 08:44:01;;;;;;;15.38;13.88;;;;;;;;;;4945441;28;20070;-76
2023/05/14 08:46:28;;;;;;;28.92;25.80;;;;;;;;;;4945246;28;20031;-77
2023/05/14 08:48:57;;;;;;;32.17;28.75;;;;;;;;;;4944923;28;20037;-77
2023/05/14 08:51:23;;;;;;;23.17;20.25;;;;;;;;;;4941355;28;20138;-76
2023/05/14 08:53:48;;;;;;;35.80;31.90;;;;;;;;;;4942680;28;20027;-77
2023/05/14 08:56:15;;;;;;;39.15;34.67;;;;;;;;;;4941758;28;20027;-77
2023/05/14 08:58:41;;;;;;;30.42;27.20;;;;;;;;;;4943880;28;20031;-75
2023/05/14 09:01:07;;;;;;;27.75;23.73;;;;;;;;;;4943770;28;20045;-76
2023/05/14 09:03:32;;;;;;;18.48;16.55;;;;;;;;;;4944450;28;20158;-76
2023/05/14 09:05:58;;;;;;;18.73;16.08;;;;;;;;;;4942768;28;20042;-75
2023/05/14 09:08:23;;;;;;;18.48;16.52;;;;;;;;;;4945062;28;20027;-76
2023/05/14 09:10:49;;;;;;;14.13;12.73;;;;;;;;;;4943542;28;20035;-76
2023/05/14 09:13:14;;;;;;;16.23;14.63;;;;;;;;;;4955066;28;20173;-76
2023/05/14 09:15:40;;;;;;;13.75;12.32;;;;;;;;;;4955035;28;20398;-77
2023/05/14 09:18:06;;;;;;;16.48;14.77;;;;;;;;;;4944488;28;20038;-77
2023/05/14 09:20:31;;;;;;;15.20;13.82;;;;;;;;;;4955683;28;20023;-76
2023/05/14 09:22:58;;;;;;;17.67;15.93;;;;;;;;;;4961668;28;20110;-76
2023/05/14 09:25:29;;;;;;;17.25;13.52;;;;;;;;;;4950948;28;20031;-75
2023/05/14 09:27:55;;;;;;;13.70;12.40;;;;;;;;;;4945863;28;20023;-75
2023/05/14 09:30:21;;;;;;;11.10;9.98;;;;;;;;;;4955257;28;20383;-76
2023/05/14 09:32:48;;;;;;;12.32;11.13;;;;;;;;;;4954772;28;20668;-76
2023/05/14 09:35:17;;;;;;;16.95;15.23;;;;;;;;;;4955021;28;20039;-75
2023/05/14 09:37:43;;;;;;;18.73;16.92;;;;;;;;;;4953220;28;20034;-74
2023/05/14 09:40:09;;;;;;;13.75;12.32;;;;;;;;;;4955046;28;20031;-78
2023/05/14 09:42:35;;;;;;;14.88;13.48;;;;;;;;;;4964037;28;20055;-75
2023/05/14 09:45:00;;;;;;;21.30;19.20;;;;;;;;;;4955503;28;20114;-75
2023/05/14 09:47:26;;;;;;;15.05;13.48;;;;;;;;;;4966915;28;20114;-75
2023/05/14 09:49:51;;;;;;;18.45;14.40;;;;;;;;;;4954327;28;20027;-75
2023/05/14 09:52:22;;;;;;;21.10;19.00;;;;;;;;;;4960027;28;20023;-76
2023/05/14 09:54:47;;;;;;;23.77;21.33;;;;;;;;;;4942758;28;20027;-76
2023/05/14 09:57:13;;;;;;;31.80;28.40;;;;;;;;;;4944819;28;20038;-76
2023/05/14 09:59:38;;;;;;;18.08;16.17;;;;;;;;;;4952333;28;20030;-75
2023/05/14 10:02:04;;;;;;;18.73;16.48;;;;;;;;;;4956607;28;20035;-75
2023/05/14 10:04:30;;;;;;;13.70;12.27;;;;;;;;;;4951705;28;20015;-76
2023/05/14 10:06:56;;;;;;;14.95;13.57;;;;;;;;;;4950886;28;20053;-76
2023/05/14 10:09:25;;;;;;;18.50;15.40;;;;;;;;;;4956584;28;20053;-76
2023/05/14 10:11:52;;;;;;;12.85;11.45;;;;;;;;;;4939844;28;20034;-76
2023/05/14 10:14:23;;;;;;;22.10;19.80;;;;;;;;;;4941275;28;20035;-75
2023/05/14 10:16:52;;;;;;;14.98;13.52;;;;;;;;;;4937670;28;20058;-76
2023/05/14 10:19:20;;;;;;;12.95;11.65;;;;;;;;;;4943414;28;20481;-76
2023/05/14 10:21:51;;;;;;;14.48;13.18;;;;;;;;;;4956456;28;20114;-75
2023/05/14 10:24:18;;;;;;;20.33;17.88;;;;;;;;;;4954537;28;20105;-77
2023/05/14 10:26:43;;;;;;;15.57;13.98;;;;;;;;;;4946681;28;20034;-76
2023/05/14 10:29:10;;;;;;;14.30;12.77;;;;;;;;;;4955734;28;20435;-76
2023/05/14 10:31:45;;;;;;;18.50;15.88;;;;;;;;;;4942963;28;20089;-75
2023/05/14 10:34:31;;;;;;;14.13;12.82;;;;;;;;;;4946403;28;20466;-77
2023/05/14 10:37:03;;;;;;;20.85;18.25;;;;;;;;;;4935779;28;20483;-75
2023/05/14 10:39:45;;;;;;;24.02;19.90;;;;;;;;;;4948174;28;20026;-77
2023/05/14 10:42:12;;;;;;;14.75;13.25;;;;;;;;;;4959424;28;20055;-76
2023/05/14 10:44:41;;;;;;;12.38;11.27;;;;;;;;;;4953569;28;20436;-75
2023/05/14 10:47:07;;;;;;;14.07;12.77;;;;;;;;;;4945657;28;20191;-76
2023/05/14 10:49:32;;;;;;;10.40;9.50;;;;;;;;;;4940468;28;20422;-76
2023/05/14 10:51:58;;;;;;;17.92;15.70;;;;;;;;;;4949995;28;20101;-75
2023/05/14 10:54:23;;;;;;;18.00;16.10;;;;;;;;;;4953113;28;20039;-76
2023/05/14 10:56:51;;;;;;;44.30;33.60;;;;;;;;;;4956753;28;20086;-76
2023/05/14 10:59:16;;;;;;;30.02;23.35;;;;;;;;;;4945310;28;20033;-72
2023/05/14 11:01:42;;;;;;;27.20;21.30;;;;;;;;;;4953607;28;20039;-75
2023/05/14 11:04:08;;;;;;;16.90;15.10;;;;;;;;;;4954995;28;20029;-77
2023/05/14 11:06:34;;;;;;;41.53;32.08;;;;;;;;;;4948692;28;20085;-76
2023/05/14 11:09:00;;;;;;;19.73;16.80;;;;;;;;;;4946759;28;20030;-76
2023/05/14 11:11:25;;;;;;;19.98;17.00;;;;;;;;;;4948637;28;20042;-76
2023/05/14 11:13:52;;;;;;;15.48;13.13;;;;;;;;;;4953044;28;20035;-75
2023/05/14 11:16:21;;;;;;;17.90;16.00;;;;;;;;;;4937628;28;20019;-76
2023/05/14 11:18:46;;;;;;;20.10;17.57;;;;;;;;;;4946785;28;20027;-77
2023/05/14 11:21:11;;;;;;;33.03;24.77;;;;;;;;;;4958063;28;20038;-80
2023/05/14 11:23:37;;;;;;;12.85;11.45;;;;;;;;;;4955791;28;20033;-77
2023/05/14 11:26:02;;;;;;;13.23;11.88;;;;;;;;;;4943698;28;20106;-76
2023/05/14 11:28:28;;;;;;;19.10;16.80;;;;;;;;;;4948071;28;20031;-77
2023/05/14 11:30:54;;;;;;;11.10;10.07;;;;;;;;;;4950210;28;20378;-76
2023/05/14 11:33:19;;;;;;;15.40;13.85;;;;;;;;;;4940191;28;20118;-77
2023/05/14 11:35:48;;;;;;;13.43;12.18;;;;;;;;;;4947695;28;20469;-76
2023/05/14 11:38:17;;;;;;;16.83;13.48;;;;;;;;;;4939046;28;20089;-75
2023/05/14 11:40:50;;;;;;;25.25;21.98;;;;;;;;;;4948436;28;20042;-76
2023/05/14 11:43:15;;;;;;;14.13;12.70;;;;;;;;;;4941703;28;20031;-75
2023/05/14 11:45:40;;;;;;;19.85;17.75;;;;;;;;;;4938657;28;20453;-76
2023/05/14 11:48:13;;;;;;;37.45;33.28;;;;;;;;;;4936920;28;20046;-75
2023/05/14 11:50:39;;;;;;;20.88;18.20;;;;;;;;;;4934361;28;20062;-75
2023/05/14 11:53:05;;;;;;;13.57;12.07;;;;;;;;;;4937076;28;20027;-75
2023/05/14 11:55:32;;;;;;;16.60;15.00;;;;;;;;;;4936964;28;20035;-76
2023/05/14 11:57:58;;;;;;;15.35;14.02;;;;;;;;;;4935097;28;20027;-76
2023/05/14 12:00:25;;;;;;;17.70;13.05;;;;;;;;;;4946691;28;20045;-77
2023/05/14 12:02:50;;;;;;;20.30;18.15;;;;;;;;;;4949120;28;20094;-78
2023/05/14 12:05:15;;;;;;;18.60;16.75;;;;;;;;;;4950967;28;20732;-76
2023/05/14 12:07:43;;;;;;;22.15;19.80;;;;;;;;;;4955089;28;20034;-78
2023/05/14 12:10:11;;;;;;;22.85;19.70;;;;;;;;;;4951191;28;20053;-79
2023/05/14 12:12:36;;;;;;;19.00;17.02;;;;;;;;;;4955905;28;20027;-76
2023/05/14 12:15:09;;;;;;;17.77;16.00;;;;;;;;;;4955114;28;20065;-76
2023/05/14 12:17:36;;;;;;;22.50;18.17;;;;;;;;;;4954168;28;20048;-76
2023/05/14 12:20:02;;;;;;;25.33;19.85;;;;;;;;;;4954367;28;20038;-76
2023/05/14 12:22:28;;;;;;;32.47;26.95;;;;;;;;;;4956699;28;20454;-76
2023/05/14 12:24:57;;;;;;;23.52;20.45;;;;;;;;;;4954685;28;20035;-79
2023/05/14 12:27:23;;;;;;;20.42;18.23;;;;;;;;;;4954383;28;20066;-76
2023/05/14 12:29:52;;;;;;;15.93;14.40;;;;;;;;;;4955427;28;20079;-74
2023/05/14 12:32:18;;;;;;;31.20;26.03;;;;;;;;;;4953450;28;20332;-75
2023/05/14 12:34:44;;;;;;;20.17;18.08;;;;;;;;;;4956249;28;20040;-76
2023/05/14 12:37:09;;;;;;;26.13;23.45;;;;;;;;;;4954774;28;20378;-76
2023/05/14 12:39:35;;;;;;;22.13;18.52;;;;;;;;;;4949108;28;20022;-76
2023/05/14 12:42:00;;;;;;;20.17;18.02;;;;;;;;;;4948813;28;20088;-75
2023/05/14 12:44:26;;;;;;;21.33;17.25;;;;;;;;;;4957178;28;20086;-77
2023/05/14 12:46:51;;;;;;;19.20;16.85;;;;;;;;;;4947114;28;20451;-75
2023/05/14 12:49:17;;;;;;;21.75;19.48;;;;;;;;;;4949436;28;20025;-75
2023/05/14 12:51:42;;;;;;;20.90;18.55;;;;;;;;;;4954290;28;20465;-77
2023/05/14 12:54:09;;;;;;;29.08;26.02;;;;;;;;;;4942002;28;20446;-77
2023/05/14 12:56:36;;;;;;;21.58;19.27;;;;;;;;;;4942069;28;20027;-76
2023/05/14 12:59:02;;;;;;;28.05;25.27;;;;;;;;;;4939449;28;20111;-76
2023/05/14 13:01:27;;;;;;;19.55;17.65;;;;;;;;;;4944570;28;20039;-75
2023/05/14 13:03:54;;;;;;;17.75;16.02;;;;;;;;;;4947339;28;20038;-74
2023/05/14 13:06:19;;;;;;;19.92;18.02;;;;;;;;;;4944028;28;20026;-75
2023/05/14 13:08:45;;;;;;;20.95;18.45;;;;;;;;;;4955354;28;20105;-75
2023/05/14 13:11:10;;;;;;;21.13;18.95;;;;;;;;;;4951421;28;20141;-76
2023/05/14 13:13:35;;;;;;;19.35;17.45;;;;;;;;;;4954569;28;20035;-74
2023/05/14 13:16:01;;;;;;;19.67;17.67;;;;;;;;;;4956551;28;20038;-76
2023/05/14 13:18:26;;;;;;;19.42;17.63;;;;;;;;;;4947466;28;20041;-76
2023/05/14 13:20:51;;;;;;;17.23;15.60;;;;;;;;;;4954061;28;20415;-76
2023/05/14 13:23:17;;;;;;;19.08;17.27;;;;;;;;;;4958588;28;20061;-75
2023/05/14 13:25:42;;;;;;;21.90;19.60;;;;;;;;;;4958155;28;20058;-76
2023/05/14 13:28:07;;;;;;;18.52;16.73;;;;;;;;;;4959092;28;20031;-76
2023/05/14 13:30:33;;;;;;;18.13;16.42;;;;;;;;;;4959401;28;20035;-76
2023/05/14 13:32:58;;;;;;;19.45;17.65;;;;;;;;;;4956288;28;20684;-77
2023/05/14 13:35:24;;;;;;;18.30;15.75;;;;;;;;;;4955011;28;20090;-75
2023/05/14 13:37:49;;;;;;;17.20;15.48;;;;;;;;;;4958204;28;20443;-76
2023/05/14 13:40:14;;;;;;;17.02;15.32;;;;;;;;;;4956978;28;20042;-75
2023/05/14 13:42:40;;;;;;;15.60;14.10;;;;;;;;;;4957702;28;20438;-77
2023/05/14 13:45:06;;;;;;;19.65;17.65;;;;;;;;;;4953967;28;20022;-75
2023/05/14 13:47:32;;;;;;;21.27;19.25;;;;;;;;;;4948225;28;21173;-75
2023/05/14 13:49:58;;;;;;;20.38;18.35;;;;;;;;;;4953687;28;20019;-76
2023/05/14 13:52:23;;;;;;;19.55;17.75;;;;;;;;;;4956637;28;20297;-76
2023/05/14 13:54:48;;;;;;;18.95;17.10;;;;;;;;;;4957499;28;20106;-76
2023/05/14 13:57:14;;;;;;;17.15;15.57;;;;;;;;;;4971848;28;20184;-74
2023/05/14 13:59:39;;;;;;;63.58;49.53;;;;;;;;;;4944287;28;20438;-75
2023/05/14 14:02:05;;;;;;;112.72;77.57;;;;;;;;;;4941338;28;20121;-78
2023/05/14 14:04:30;;;;;;;76.93;57.13;;;;;;;;;;4944659;28;20093;-76
2023/05/14 14:06:56;;;;;;;39.00;32.85;;;;;;;;;;4943589;28;20027;-76
2023/05/14 14:09:23;;;;;;;29.27;26.20;;;;;;;;;;4947693;28;20027;-75
2023/05/14 14:11:49;;;;;;;24.20;21.63;;;;;;;;;;4943678;28;20050;-75